Portada
METAR-TAF:

METAR-TAF

Aeropuertos :

Aeropuerto Internacional Murtala Muhammed

Lagos, Nigeria

latitud: 06-35N, longitud: 003-20E, altitud: 40 m

Observación

El informe se hizo hace 51 minutos, a las 06:00 UTC
Viento calma
Temperatura 25°C
Humedad 100%
Presión 1013 hPa
Visibilidad: 7000 m
Nubes dispersas a una altura de 900 ft

METAR: DNMM 190600Z 00000KT 7000 SCT009 25/25 Q1013 NOSIG

Hora: 07:51 (06:51 UTC)

Pronóstico

El informe se hizo hace 3 horas y 11 minutos, a las 03:40 UTC
Pronóstico válido del 19 a las 06 UTC al 20 a las 12 UTC
Viento 2 kt con dirección variable
Visibilidad: 8000 m
Escasas nubes a una altura de 1000 ft
Evolucionando progresivamente
del 19 a las 08 UTC al 19 a las 10 UTC
Viento 10 kt del sur-suroeste
Cielo nuboso a una altura de 1300 ft

TAF: DNMM 190340Z 1906/2012 VRB02KT 8000 FEW010 BECMG 1908/1910 20010KT BKN013

Observaciones y pronósticos meteorológicos de más de 4000 aeropuertos (mensajes METAR y TAF).

Los puntos amarillos y rojos representan las estaciones disponibles.

Ponga el ratón en el punto deseado para ver el nombre de la estación.

Haga clic para ver las observaciones y los pronósticos meteorológicos.

Para cambiar el mapa : haga clic en los botones verdes con una cruz de color negro para hacer un zoom, en el botón verde con un guión para alejar o en las flechas verdes para mapas adyacentes.


METAR-TAF: